sensor_id;sensor_type;location;lat;lon;timestamp;P1;durP1;ratioP1;P2;durP2;ratioP2
68484;SDS011;55472;50.060;21.960;2023-02-13T00:00:01;38.97;;;12.23;;
68484;SDS011;55472;50.060;21.960;2023-02-13T00:02:30;35.97;;;11.10;;
68484;SDS011;55472;50.060;21.960;2023-02-13T00:04:57;44.58;;;11.90;;
68484;SDS011;55472;50.060;21.960;2023-02-13T00:07:23;37.03;;;11.70;;
68484;SDS011;55472;50.060;21.960;2023-02-13T00:09:49;35.20;;;10.50;;
68484;SDS011;55472;50.060;21.960;2023-02-13T00:12:15;32.97;;;10.87;;
68484;SDS011;55472;50.060;21.960;2023-02-13T00:14:41;34.25;;;11.45;;
68484;SDS011;55472;50.060;21.960;2023-02-13T00:17:08;35.50;;;11.40;;
68484;SDS011;55472;50.060;21.960;2023-02-13T00:19:34;37.13;;;11.35;;
68484;SDS011;55472;50.060;21.960;2023-02-13T00:22:00;34.30;;;10.27;;
68484;SDS011;55472;50.060;21.960;2023-02-13T00:24:26;37.73;;;11.97;;
68484;SDS011;55472;50.060;21.960;2023-02-13T00:26:53;34.05;;;12.18;;
68484;SDS011;55472;50.060;21.960;2023-02-13T00:29:19;59.33;;;15.20;;
68484;SDS011;55472;50.060;21.960;2023-02-13T00:31:45;64.70;;;17.00;;
68484;SDS011;55472;50.060;21.960;2023-02-13T00:34:11;93.20;;;23.58;;
68484;SDS011;55472;50.060;21.960;2023-02-13T00:36:38;118.20;;;29.37;;
68484;SDS011;55472;50.060;21.960;2023-02-13T00:39:04;46.28;;;15.32;;
68484;SDS011;55472;50.060;21.960;2023-02-13T00:41:30;39.80;;;13.00;;
68484;SDS011;55472;50.060;21.960;2023-02-13T00:43:56;38.72;;;11.32;;
68484;SDS011;55472;50.060;21.960;2023-02-13T00:46:22;32.72;;;11.02;;
68484;SDS011;55472;50.060;21.960;2023-02-13T00:48:48;29.43;;;10.30;;
68484;SDS011;55472;50.060;21.960;2023-02-13T00:51:15;39.45;;;10.90;;
68484;SDS011;55472;50.060;21.960;2023-02-13T00:53:41;34.35;;;10.90;;
68484;SDS011;55472;50.060;21.960;2023-02-13T00:56:07;36.60;;;11.02;;
68484;SDS011;55472;50.060;21.960;2023-02-13T00:58:33;27.25;;;10.00;;
68484;SDS011;55472;50.060;21.960;2023-02-13T01:01:00;35.47;;;10.40;;
68484;SDS011;55472;50.060;21.960;2023-02-13T01:03:26;32.67;;;10.55;;
68484;SDS011;55472;50.060;21.960;2023-02-13T01:05:54;33.00;;;10.50;;
68484;SDS011;55472;50.060;21.960;2023-02-13T01:08:22;31.30;;;10.30;;
68484;SDS011;55472;50.060;21.960;2023-02-13T01:10:49;27.45;;;9.23;;
68484;SDS011;55472;50.060;21.960;2023-02-13T01:13:16;33.90;;;10.27;;
68484;SDS011;55472;50.060;21.960;2023-02-13T01:15:43;30.50;;;8.90;;
68484;SDS011;55472;50.060;21.960;2023-02-13T01:18:14;32.60;;;9.10;;
68484;SDS011;55472;50.060;21.960;2023-02-13T01:20:43;29.10;;;9.25;;
68484;SDS011;55472;50.060;21.960;2023-02-13T01:23:10;24.23;;;8.15;;
68484;SDS011;55472;50.060;21.960;2023-02-13T01:25:40;29.17;;;10.23;;
68484;SDS011;55472;50.060;21.960;2023-02-13T01:28:07;27.83;;;9.65;;
68484;SDS011;55472;50.060;21.960;2023-02-13T01:30:34;29.88;;;9.57;;
68484;SDS011;55472;50.060;21.960;2023-02-13T01:33:00;28.63;;;10.75;;
68484;SDS011;55472;50.060;21.960;2023-02-13T01:35:26;28.85;;;9.80;;
68484;SDS011;55472;50.060;21.960;2023-02-13T01:37:52;26.53;;;8.80;;
68484;SDS011;55472;50.060;21.960;2023-02-13T01:40:19;27.20;;;8.90;;
68484;SDS011;55472;50.060;21.960;2023-02-13T01:42:45;27.10;;;9.30;;
68484;SDS011;55472;50.060;21.960;2023-02-13T01:45:28;24.00;;;8.95;;
68484;SDS011;55472;50.060;21.960;2023-02-13T01:47:57;24.55;;;8.88;;
68484;SDS011;55472;50.060;21.960;2023-02-13T01:59:18;23.30;;;8.32;;
68484;SDS011;55472;50.060;21.960;2023-02-13T02:01:49;29.00;;;8.45;;
68484;SDS011;55472;50.060;21.960;2023-02-13T02:04:18;22.40;;;8.17;;
68484;SDS011;55472;50.060;21.960;2023-02-13T02:06:52;29.70;;;8.63;;
68484;SDS011;55472;50.060;21.960;2023-02-13T02:09:33;27.17;;;8.98;;
68484;SDS011;55472;50.060;21.960;2023-02-13T02:14:58;22.88;;;8.00;;
68484;SDS011;55472;50.060;21.960;2023-02-13T02:17:28;27.27;;;7.80;;
68484;SDS011;55472;50.060;21.960;2023-02-13T02:32:07;25.07;;;8.63;;
68484;SDS011;55472;50.060;21.960;2023-02-13T02:44:07;24.33;;;7.95;;
68484;SDS011;55472;50.060;21.960;2023-02-13T02:50:15;24.15;;;7.40;;
68484;SDS011;55472;50.060;21.960;2023-02-13T02:53:06;27.20;;;8.20;;
68484;SDS011;55472;50.060;21.960;2023-02-13T02:55:45;28.38;;;8.45;;
68484;SDS011;55472;50.060;21.960;2023-02-13T02:58:32;29.23;;;9.07;;
68484;SDS011;55472;50.060;21.960;2023-02-13T03:01:41;25.27;;;8.00;;
68484;SDS011;55472;50.060;21.960;2023-02-13T03:04:47;25.23;;;8.50;;
68484;SDS011;55472;50.060;21.960;2023-02-13T03:07:34;24.38;;;8.23;;
68484;SDS011;55472;50.060;21.960;2023-02-13T03:10:02;23.85;;;8.15;;
68484;SDS011;55472;50.060;21.960;2023-02-13T03:13:00;21.63;;;7.28;;
68484;SDS011;55472;50.060;21.960;2023-02-13T03:15:42;22.93;;;7.50;;
68484;SDS011;55472;50.060;21.960;2023-02-13T03:18:29;24.27;;;7.47;;
68484;SDS011;55472;50.060;21.960;2023-02-13T03:24:49;21.10;;;7.50;;
68484;SDS011;55472;50.060;21.960;2023-02-13T03:42:15;23.90;;;7.38;;
68484;SDS011;55472;50.060;21.960;2023-02-13T03:48:03;20.90;;;7.40;;
68484;SDS011;55472;50.060;21.960;2023-02-13T03:50:35;23.55;;;7.07;;
68484;SDS011;55472;50.060;21.960;2023-02-13T03:53:07;21.98;;;7.20;;
68484;SDS011;55472;50.060;21.960;2023-02-13T03:55:37;22.30;;;7.20;;
68484;SDS011;55472;50.060;21.960;2023-02-13T03:58:36;20.23;;;6.90;;
68484;SDS011;55472;50.060;21.960;2023-02-13T04:01:30;21.20;;;6.32;;
68484;SDS011;55472;50.060;21.960;2023-02-13T04:09:25;16.67;;;6.20;;
68484;SDS011;55472;50.060;21.960;2023-02-13T04:12:01;21.13;;;6.27;;
68484;SDS011;55472;50.060;21.960;2023-02-13T04:14:52;23.35;;;6.80;;
68484;SDS011;55472;50.060;21.960;2023-02-13T04:17:30;23.00;;;6.95;;
68484;SDS011;55472;50.060;21.960;2023-02-13T04:20:01;22.20;;;6.60;;
68484;SDS011;55472;50.060;21.960;2023-02-13T04:22:28;20.23;;;6.68;;
68484;SDS011;55472;50.060;21.960;2023-02-13T04:24:54;25.77;;;6.67;;
68484;SDS011;55472;50.060;21.960;2023-02-13T04:27:21;20.23;;;6.32;;
68484;SDS011;55472;50.060;21.960;2023-02-13T04:29:52;18.85;;;5.90;;
68484;SDS011;55472;50.060;21.960;2023-02-13T04:32:18;22.77;;;6.68;;
68484;SDS011;55472;50.060;21.960;2023-02-13T04:34:44;21.80;;;6.07;;
68484;SDS011;55472;50.060;21.960;2023-02-13T04:37:11;25.80;;;6.93;;
68484;SDS011;55472;50.060;21.960;2023-02-13T04:39:37;22.00;;;6.97;;
68484;SDS011;55472;50.060;21.960;2023-02-13T04:42:03;26.73;;;7.95;;
68484;SDS011;55472;50.060;21.960;2023-02-13T04:44:29;18.80;;;6.97;;
68484;SDS011;55472;50.060;21.960;2023-02-13T04:46:55;24.85;;;6.68;;
68484;SDS011;55472;50.060;21.960;2023-02-13T04:49:21;22.27;;;6.93;;
68484;SDS011;55472;50.060;21.960;2023-02-13T04:51:48;25.33;;;7.15;;
68484;SDS011;55472;50.060;21.960;2023-02-13T04:54:14;23.83;;;7.18;;
68484;SDS011;55472;50.060;21.960;2023-02-13T04:56:40;29.33;;;8.20;;
68484;SDS011;55472;50.060;21.960;2023-02-13T04:59:06;27.52;;;7.85;;
68484;SDS011;55472;50.060;21.960;2023-02-13T05:01:32;24.80;;;8.97;;
68484;SDS011;55472;50.060;21.960;2023-02-13T05:03:59;23.35;;;8.30;;
68484;SDS011;55472;50.060;21.960;2023-02-13T05:06:25;30.63;;;8.18;;
68484;SDS011;55472;50.060;21.960;2023-02-13T05:08:51;27.77;;;8.00;;
68484;SDS011;55472;50.060;21.960;2023-02-13T05:11:17;29.77;;;9.38;;
68484;SDS011;55472;50.060;21.960;2023-02-13T05:13:43;29.20;;;9.70;;
68484;SDS011;55472;50.060;21.960;2023-02-13T05:16:10;27.75;;;9.32;;
68484;SDS011;55472;50.060;21.960;2023-02-13T05:18:36;28.75;;;9.55;;
68484;SDS011;55472;50.060;21.960;2023-02-13T05:21:02;28.08;;;9.45;;
68484;SDS011;55472;50.060;21.960;2023-02-13T05:23:47;32.50;;;10.73;;
68484;SDS011;55472;50.060;21.960;2023-02-13T05:26:13;26.20;;;9.53;;
68484;SDS011;55472;50.060;21.960;2023-02-13T05:28:39;29.95;;;10.07;;
68484;SDS011;55472;50.060;21.960;2023-02-13T05:31:24;27.25;;;8.93;;
68484;SDS011;55472;50.060;21.960;2023-02-13T05:33:50;27.42;;;9.70;;
68484;SDS011;55472;50.060;21.960;2023-02-13T05:36:17;29.40;;;9.75;;
68484;SDS011;55472;50.060;21.960;2023-02-13T05:38:43;27.20;;;10.20;;
68484;SDS011;55472;50.060;21.960;2023-02-13T05:41:09;32.45;;;10.05;;
68484;SDS011;55472;50.060;21.960;2023-02-13T05:43:37;26.27;;;9.43;;
68484;SDS011;55472;50.060;21.960;2023-02-13T05:46:04;31.67;;;10.85;;
68484;SDS011;55472;50.060;21.960;2023-02-13T05:48:32;33.67;;;11.00;;
68484;SDS011;55472;50.060;21.960;2023-02-13T05:51:00;31.77;;;10.50;;
68484;SDS011;55472;50.060;21.960;2023-02-13T05:53:26;35.45;;;11.30;;
68484;SDS011;55472;50.060;21.960;2023-02-13T05:55:54;35.60;;;11.25;;
68484;SDS011;55472;50.060;21.960;2023-02-13T05:58:20;34.75;;;11.10;;
68484;SDS011;55472;50.060;21.960;2023-02-13T06:00:47;30.25;;;9.70;;
68484;SDS011;55472;50.060;21.960;2023-02-13T06:03:13;37.93;;;11.00;;
68484;SDS011;55472;50.060;21.960;2023-02-13T06:05:40;27.95;;;10.10;;
68484;SDS011;55472;50.060;21.960;2023-02-13T06:08:06;31.77;;;10.25;;
68484;SDS011;55472;50.060;21.960;2023-02-13T06:10:32;35.22;;;11.00;;
68484;SDS011;55472;50.060;21.960;2023-02-13T06:12:58;35.85;;;11.18;;
68484;SDS011;55472;50.060;21.960;2023-02-13T06:15:25;33.53;;;11.63;;
68484;SDS011;55472;50.060;21.960;2023-02-13T06:17:51;34.67;;;11.73;;
68484;SDS011;55472;50.060;21.960;2023-02-13T06:20:17;36.55;;;11.85;;
68484;SDS011;55472;50.060;21.960;2023-02-13T06:22:45;41.78;;;11.57;;
68484;SDS011;55472;50.060;21.960;2023-02-13T06:25:15;35.53;;;10.77;;
68484;SDS011;55472;50.060;21.960;2023-02-13T06:27:41;35.37;;;9.90;;
68484;SDS011;55472;50.060;21.960;2023-02-13T06:30:07;34.95;;;10.52;;
68484;SDS011;55472;50.060;21.960;2023-02-13T06:32:34;29.55;;;9.93;;
68484;SDS011;55472;50.060;21.960;2023-02-13T06:35:01;33.80;;;9.80;;
68484;SDS011;55472;50.060;21.960;2023-02-13T06:37:27;34.85;;;10.85;;
68484;SDS011;55472;50.060;21.960;2023-02-13T06:39:53;38.43;;;12.20;;
68484;SDS011;55472;50.060;21.960;2023-02-13T06:42:19;34.80;;;11.05;;
68484;SDS011;55472;50.060;21.960;2023-02-13T06:44:46;32.90;;;11.18;;
68484;SDS011;55472;50.060;21.960;2023-02-13T06:47:12;35.75;;;10.68;;
68484;SDS011;55472;50.060;21.960;2023-02-13T06:49:38;44.95;;;12.55;;
68484;SDS011;55472;50.060;21.960;2023-02-13T06:52:04;42.33;;;12.27;;
68484;SDS011;55472;50.060;21.960;2023-02-13T06:54:31;35.65;;;11.52;;
68484;SDS011;55472;50.060;21.960;2023-02-13T06:56:57;42.50;;;12.90;;
68484;SDS011;55472;50.060;21.960;2023-02-13T06:59:24;45.22;;;13.55;;
68484;SDS011;55472;50.060;21.960;2023-02-13T07:01:50;40.85;;;12.82;;
68484;SDS011;55472;50.060;21.960;2023-02-13T07:04:16;43.53;;;13.23;;
68484;SDS011;55472;50.060;21.960;2023-02-13T07:06:42;38.70;;;13.10;;
68484;SDS011;55472;50.060;21.960;2023-02-13T07:09:09;43.35;;;13.35;;
68484;SDS011;55472;50.060;21.960;2023-02-13T07:11:37;41.42;;;13.15;;
68484;SDS011;55472;50.060;21.960;2023-02-13T07:14:07;48.55;;;14.82;;
68484;SDS011;55472;50.060;21.960;2023-02-13T07:16:34;43.30;;;14.00;;
68484;SDS011;55472;50.060;21.960;2023-02-13T07:19:00;43.97;;;14.48;;
68484;SDS011;55472;50.060;21.960;2023-02-13T07:21:26;49.30;;;15.27;;
68484;SDS011;55472;50.060;21.960;2023-02-13T07:23:53;46.90;;;14.07;;
68484;SDS011;55472;50.060;21.960;2023-02-13T07:26:19;43.70;;;14.57;;
68484;SDS011;55472;50.060;21.960;2023-02-13T07:28:45;51.30;;;15.80;;
68484;SDS011;55472;50.060;21.960;2023-02-13T07:31:11;40.40;;;15.00;;
68484;SDS011;55472;50.060;21.960;2023-02-13T07:33:37;49.85;;;15.35;;
68484;SDS011;55472;50.060;21.960;2023-02-13T07:36:04;49.90;;;16.15;;
68484;SDS011;55472;50.060;21.960;2023-02-13T07:38:31;54.88;;;17.15;;
68484;SDS011;55472;50.060;21.960;2023-02-13T07:40:58;56.77;;;16.50;;
68484;SDS011;55472;50.060;21.960;2023-02-13T07:43:29;56.00;;;17.60;;
68484;SDS011;55472;50.060;21.960;2023-02-13T07:45:59;49.95;;;16.35;;
68484;SDS011;55472;50.060;21.960;2023-02-13T07:48:27;48.58;;;17.27;;
68484;SDS011;55472;50.060;21.960;2023-02-13T07:50:53;50.70;;;16.02;;
68484;SDS011;55472;50.060;21.960;2023-02-13T07:53:24;53.33;;;16.67;;
68484;SDS011;55472;50.060;21.960;2023-02-13T07:55:50;51.45;;;17.13;;
68484;SDS011;55472;50.060;21.960;2023-02-13T07:58:17;56.25;;;16.83;;
68484;SDS011;55472;50.060;21.960;2023-02-13T08:00:43;46.33;;;16.00;;
68484;SDS011;55472;50.060;21.960;2023-02-13T08:03:09;50.97;;;16.80;;
68484;SDS011;55472;50.060;21.960;2023-02-13T08:05:36;54.97;;;17.27;;
68484;SDS011;55472;50.060;21.960;2023-02-13T08:08:03;50.83;;;16.63;;
68484;SDS011;55472;50.060;21.960;2023-02-13T08:10:29;52.63;;;16.60;;
68484;SDS011;55472;50.060;21.960;2023-02-13T08:13:14;52.00;;;17.58;;
68484;SDS011;55472;50.060;21.960;2023-02-13T08:15:41;56.75;;;17.98;;
68484;SDS011;55472;50.060;21.960;2023-02-13T08:18:09;54.20;;;16.87;;
68484;SDS011;55472;50.060;21.960;2023-02-13T08:20:35;59.90;;;19.60;;
68484;SDS011;55472;50.060;21.960;2023-02-13T08:23:06;55.80;;;18.20;;
68484;SDS011;55472;50.060;21.960;2023-02-13T08:25:36;44.15;;;14.95;;
68484;SDS011;55472;50.060;21.960;2023-02-13T08:28:03;46.35;;;15.13;;
68484;SDS011;55472;50.060;21.960;2023-02-13T08:30:30;53.93;;;16.53;;
68484;SDS011;55472;50.060;21.960;2023-02-13T08:32:56;50.28;;;16.60;;
68484;SDS011;55472;50.060;21.960;2023-02-13T08:35:22;47.20;;;16.40;;
68484;SDS011;55472;50.060;21.960;2023-02-13T08:37:51;43.92;;;15.65;;
68484;SDS011;55472;50.060;21.960;2023-02-13T08:40:18;43.15;;;15.02;;
68484;SDS011;55472;50.060;21.960;2023-02-13T08:42:44;49.07;;;16.17;;
68484;SDS011;55472;50.060;21.960;2023-02-13T08:45:10;53.78;;;16.42;;
68484;SDS011;55472;50.060;21.960;2023-02-13T08:47:37;45.60;;;15.77;;
68484;SDS011;55472;50.060;21.960;2023-02-13T08:50:06;46.17;;;16.42;;
68484;SDS011;55472;50.060;21.960;2023-02-13T08:52:33;46.17;;;15.02;;
68484;SDS011;55472;50.060;21.960;2023-02-13T08:54:59;43.17;;;15.57;;
68484;SDS011;55472;50.060;21.960;2023-02-13T08:57:27;48.92;;;15.25;;
68484;SDS011;55472;50.060;21.960;2023-02-13T08:59:55;43.42;;;15.05;;
68484;SDS011;55472;50.060;21.960;2023-02-13T09:02:21;44.60;;;15.40;;
68484;SDS011;55472;50.060;21.960;2023-02-13T09:04:47;48.88;;;14.88;;
68484;SDS011;55472;50.060;21.960;2023-02-13T09:07:13;39.97;;;14.30;;
68484;SDS011;55472;50.060;21.960;2023-02-13T09:09:39;43.17;;;14.02;;
68484;SDS011;55472;50.060;21.960;2023-02-13T09:12:06;43.88;;;15.73;;
68484;SDS011;55472;50.060;21.960;2023-02-13T09:14:32;42.38;;;14.55;;
68484;SDS011;55472;50.060;21.960;2023-02-13T09:16:59;43.17;;;14.70;;
68484;SDS011;55472;50.060;21.960;2023-02-13T09:19:25;40.03;;;14.63;;
68484;SDS011;55472;50.060;21.960;2023-02-13T09:21:51;44.58;;;15.32;;
68484;SDS011;55472;50.060;21.960;2023-02-13T09:24:17;38.55;;;14.57;;
68484;SDS011;55472;50.060;21.960;2023-02-13T09:26:43;41.92;;;15.00;;
68484;SDS011;55472;50.060;21.960;2023-02-13T09:29:09;42.33;;;13.98;;
68484;SDS011;55472;50.060;21.960;2023-02-13T09:31:36;40.03;;;14.87;;
68484;SDS011;55472;50.060;21.960;2023-02-13T09:34:02;42.85;;;15.13;;
68484;SDS011;55472;50.060;21.960;2023-02-13T09:36:28;38.38;;;13.45;;
68484;SDS011;55472;50.060;21.960;2023-02-13T09:38:55;47.92;;;14.80;;
68484;SDS011;55472;50.060;21.960;2023-02-13T09:41:26;37.85;;;12.98;;
68484;SDS011;55472;50.060;21.960;2023-02-13T09:44:06;48.60;;;15.53;;
68484;SDS011;55472;50.060;21.960;2023-02-13T09:47:02;41.67;;;15.38;;
68484;SDS011;55472;50.060;21.960;2023-02-13T09:49:48;39.75;;;14.05;;
68484;SDS011;55472;50.060;21.960;2023-02-13T09:52:18;44.65;;;14.57;;
68484;SDS011;55472;50.060;21.960;2023-02-13T09:54:44;42.83;;;14.95;;
68484;SDS011;55472;50.060;21.960;2023-02-13T10:17:25;44.45;;;14.48;;
68484;SDS011;55472;50.060;21.960;2023-02-13T10:20:09;40.47;;;13.73;;
68484;SDS011;55472;50.060;21.960;2023-02-13T10:25:59;41.83;;;13.87;;
68484;SDS011;55472;50.060;21.960;2023-02-13T10:31:13;36.47;;;13.38;;
68484;SDS011;55472;50.060;21.960;2023-02-13T10:36:20;37.30;;;13.45;;
68484;SDS011;55472;50.060;21.960;2023-02-13T10:50:26;30.63;;;10.75;;
68484;SDS011;55472;50.060;21.960;2023-02-13T10:58:42;32.70;;;11.38;;
68484;SDS011;55472;50.060;21.960;2023-02-13T11:01:48;35.28;;;13.27;;
68484;SDS011;55472;50.060;21.960;2023-02-13T11:04:22;31.67;;;10.60;;
68484;SDS011;55472;50.060;21.960;2023-02-13T11:06:54;34.10;;;11.37;;
68484;SDS011;55472;50.060;21.960;2023-02-13T11:09:22;29.65;;;10.70;;
68484;SDS011;55472;50.060;21.960;2023-02-13T11:11:49;27.95;;;10.25;;
68484;SDS011;55472;50.060;21.960;2023-02-13T11:14:20;31.73;;;10.85;;
68484;SDS011;55472;50.060;21.960;2023-02-13T11:16:56;28.50;;;10.65;;
68484;SDS011;55472;50.060;21.960;2023-02-13T11:22:10;27.98;;;10.13;;
68484;SDS011;55472;50.060;21.960;2023-02-13T11:24:40;29.40;;;10.38;;
68484;SDS011;55472;50.060;21.960;2023-02-13T11:27:15;25.33;;;9.63;;
68484;SDS011;55472;50.060;21.960;2023-02-13T11:29:53;27.35;;;9.85;;
68484;SDS011;55472;50.060;21.960;2023-02-13T11:32:23;24.93;;;10.13;;
68484;SDS011;55472;50.060;21.960;2023-02-13T11:34:53;23.92;;;9.18;;
68484;SDS011;55472;50.060;21.960;2023-02-13T11:37:21;27.45;;;9.90;;
68484;SDS011;55472;50.060;21.960;2023-02-13T11:39:55;28.80;;;9.75;;
68484;SDS011;55472;50.060;21.960;2023-02-13T11:47:40;30.00;;;10.10;;
68484;SDS011;55472;50.060;21.960;2023-02-13T11:52:53;25.73;;;8.40;;
68484;SDS011;55472;50.060;21.960;2023-02-13T11:55:31;25.33;;;8.90;;
68484;SDS011;55472;50.060;21.960;2023-02-13T11:58:22;29.17;;;9.10;;
68484;SDS011;55472;50.060;21.960;2023-02-13T12:00:49;24.63;;;8.70;;
68484;SDS011;55472;50.060;21.960;2023-02-13T12:03:44;20.27;;;7.35;;
68484;SDS011;55472;50.060;21.960;2023-02-13T12:09:29;24.35;;;9.13;;
68484;SDS011;55472;50.060;21.960;2023-02-13T12:11:57;24.33;;;9.07;;
68484;SDS011;55472;50.060;21.960;2023-02-13T12:14:35;23.15;;;8.43;;
68484;SDS011;55472;50.060;21.960;2023-02-13T12:17:16;24.15;;;8.38;;
68484;SDS011;55472;50.060;21.960;2023-02-13T12:19:47;24.65;;;8.80;;
68484;SDS011;55472;50.060;21.960;2023-02-13T12:28:17;20.42;;;7.78;;
68484;SDS011;55472;50.060;21.960;2023-02-13T12:37:02;28.05;;;10.93;;
68484;SDS011;55472;50.060;21.960;2023-02-13T13:03:31;22.80;;;7.38;;
68484;SDS011;55472;50.060;21.960;2023-02-13T13:06:31;20.88;;;6.47;;
68484;SDS011;55472;50.060;21.960;2023-02-13T13:16:01;15.70;;;5.50;;
68484;SDS011;55472;50.060;21.960;2023-02-13T13:21:13;14.68;;;5.20;;
68484;SDS011;55472;50.060;21.960;2023-02-13T13:26:35;14.00;;;4.00;;
68484;SDS011;55472;50.060;21.960;2023-02-13T13:29:11;14.88;;;4.93;;
68484;SDS011;55472;50.060;21.960;2023-02-13T13:31:53;14.05;;;4.68;;
68484;SDS011;55472;50.060;21.960;2023-02-13T13:34:26;16.63;;;5.00;;
68484;SDS011;55472;50.060;21.960;2023-02-13T13:36:58;15.40;;;4.40;;
68484;SDS011;55472;50.060;21.960;2023-02-13T13:45:50;17.83;;;4.57;;
68484;SDS011;55472;50.060;21.960;2023-02-13T13:51:02;17.57;;;5.03;;
68484;SDS011;55472;50.060;21.960;2023-02-13T13:53:32;15.50;;;5.22;;
68484;SDS011;55472;50.060;21.960;2023-02-13T13:55:59;18.00;;;5.68;;
68484;SDS011;55472;50.060;21.960;2023-02-13T14:01:43;18.08;;;5.88;;
68484;SDS011;55472;50.060;21.960;2023-02-13T14:03:55;20.80;;;6.27;;
68484;SDS011;55472;50.060;21.960;2023-02-13T14:14:53;27.15;;;8.00;;
68484;SDS011;55472;50.060;21.960;2023-02-13T14:20:32;24.83;;;8.27;;
68484;SDS011;55472;50.060;21.960;2023-02-13T14:26:11;28.15;;;8.35;;
68484;SDS011;55472;50.060;21.960;2023-02-13T14:28:41;31.70;;;8.57;;
68484;SDS011;55472;50.060;21.960;2023-02-13T14:31:30;26.10;;;8.70;;
68484;SDS011;55472;50.060;21.960;2023-02-13T14:37:04;26.02;;;8.85;;
68484;SDS011;55472;50.060;21.960;2023-02-13T14:39:34;35.83;;;10.82;;
68484;SDS011;55472;50.060;21.960;2023-02-13T14:42:02;27.67;;;8.73;;
68484;SDS011;55472;50.060;21.960;2023-02-13T14:44:48;26.50;;;9.60;;
68484;SDS011;55472;50.060;21.960;2023-02-13T14:47:30;30.85;;;10.43;;
68484;SDS011;55472;50.060;21.960;2023-02-13T14:50:17;31.75;;;11.05;;
68484;SDS011;55472;50.060;21.960;2023-02-13T14:52:48;30.33;;;10.07;;
68484;SDS011;55472;50.060;21.960;2023-02-13T14:58:06;26.00;;;9.30;;
68484;SDS011;55472;50.060;21.960;2023-02-13T15:06:06;27.92;;;10.20;;
68484;SDS011;55472;50.060;21.960;2023-02-13T15:08:47;26.15;;;10.10;;
68484;SDS011;55472;50.060;21.960;2023-02-13T15:11:38;30.93;;;11.00;;
68484;SDS011;55472;50.060;21.960;2023-02-13T15:14:40;27.63;;;9.80;;
68484;SDS011;55472;50.060;21.960;2023-02-13T15:17:17;26.58;;;8.75;;
68484;SDS011;55472;50.060;21.960;2023-02-13T15:19:52;30.73;;;11.02;;
68484;SDS011;55472;50.060;21.960;2023-02-13T15:24:57;30.47;;;10.27;;
68484;SDS011;55472;50.060;21.960;2023-02-13T15:27:25;27.50;;;9.57;;
68484;SDS011;55472;50.060;21.960;2023-02-13T15:30:01;35.60;;;11.85;;
68484;SDS011;55472;50.060;21.960;2023-02-13T15:32:40;30.85;;;10.07;;
68484;SDS011;55472;50.060;21.960;2023-02-13T15:35:20;35.42;;;12.93;;
68484;SDS011;55472;50.060;21.960;2023-02-13T15:37:55;33.73;;;10.90;;
68484;SDS011;55472;50.060;21.960;2023-02-13T15:40:24;37.22;;;12.32;;
68484;SDS011;55472;50.060;21.960;2023-02-13T15:42:59;32.22;;;11.60;;
68484;SDS011;55472;50.060;21.960;2023-02-13T15:45:26;31.85;;;11.13;;
68484;SDS011;55472;50.060;21.960;2023-02-13T15:47:54;30.98;;;11.35;;
68484;SDS011;55472;50.060;21.960;2023-02-13T15:50:32;36.67;;;13.07;;
68484;SDS011;55472;50.060;21.960;2023-02-13T15:53:03;28.05;;;10.77;;
68484;SDS011;55472;50.060;21.960;2023-02-13T15:55:37;26.30;;;10.48;;
68484;SDS011;55472;50.060;21.960;2023-02-13T15:58:03;29.23;;;10.43;;
68484;SDS011;55472;50.060;21.960;2023-02-13T16:00:31;34.42;;;11.10;;
68484;SDS011;55472;50.060;21.960;2023-02-13T16:03:01;32.50;;;10.23;;
68484;SDS011;55472;50.060;21.960;2023-02-13T16:05:32;25.55;;;10.18;;
68484;SDS011;55472;50.060;21.960;2023-02-13T16:08:19;29.63;;;10.43;;
68484;SDS011;55472;50.060;21.960;2023-02-13T16:16:52;27.13;;;9.30;;
68484;SDS011;55472;50.060;21.960;2023-02-13T16:22:32;25.35;;;9.85;;
68484;SDS011;55472;50.060;21.960;2023-02-13T16:27:51;31.88;;;10.55;;
68484;SDS011;55472;50.060;21.960;2023-02-13T16:35:39;26.95;;;9.90;;
68484;SDS011;55472;50.060;21.960;2023-02-13T16:38:37;26.38;;;9.18;;
68484;SDS011;55472;50.060;21.960;2023-02-13T16:46:21;33.13;;;12.50;;
68484;SDS011;55472;50.060;21.960;2023-02-13T16:54:24;30.85;;;11.40;;
68484;SDS011;55472;50.060;21.960;2023-02-13T16:57:18;28.13;;;10.47;;
68484;SDS011;55472;50.060;21.960;2023-02-13T16:59:52;30.85;;;10.32;;
68484;SDS011;55472;50.060;21.960;2023-02-13T17:02:36;26.38;;;10.63;;
68484;SDS011;55472;50.060;21.960;2023-02-13T17:07:36;27.75;;;9.85;;
68484;SDS011;55472;50.060;21.960;2023-02-13T17:10:29;30.07;;;10.17;;
68484;SDS011;55472;50.060;21.960;2023-02-13T17:15:40;26.92;;;10.50;;
68484;SDS011;55472;50.060;21.960;2023-02-13T17:18:10;24.65;;;9.68;;
68484;SDS011;55472;50.060;21.960;2023-02-13T17:20:39;27.58;;;10.60;;
68484;SDS011;55472;50.060;21.960;2023-02-13T17:23:12;24.67;;;8.40;;
68484;SDS011;55472;50.060;21.960;2023-02-13T17:25:47;25.92;;;10.13;;
68484;SDS011;55472;50.060;21.960;2023-02-13T17:28:16;40.97;;;13.57;;
68484;SDS011;55472;50.060;21.960;2023-02-13T17:30:46;49.40;;;15.57;;
68484;SDS011;55472;50.060;21.960;2023-02-13T17:33:21;55.75;;;18.92;;
68484;SDS011;55472;50.060;21.960;2023-02-13T17:35:58;35.83;;;13.07;;
68484;SDS011;55472;50.060;21.960;2023-02-13T17:38:24;49.83;;;17.75;;
68484;SDS011;55472;50.060;21.960;2023-02-13T17:40:51;39.53;;;15.00;;
68484;SDS011;55472;50.060;21.960;2023-02-13T17:43:18;34.03;;;12.90;;
68484;SDS011;55472;50.060;21.960;2023-02-13T17:45:45;22.73;;;8.88;;
68484;SDS011;55472;50.060;21.960;2023-02-13T17:48:12;28.23;;;11.17;;
68484;SDS011;55472;50.060;21.960;2023-02-13T17:50:40;23.15;;;9.85;;
68484;SDS011;55472;50.060;21.960;2023-02-13T17:53:07;28.88;;;9.98;;
68484;SDS011;55472;50.060;21.960;2023-02-13T17:55:46;28.10;;;9.68;;
68484;SDS011;55472;50.060;21.960;2023-02-13T17:58:12;27.50;;;9.93;;
68484;SDS011;55472;50.060;21.960;2023-02-13T18:00:38;30.23;;;10.07;;
68484;SDS011;55472;50.060;21.960;2023-02-13T18:03:05;50.03;;;15.88;;
68484;SDS011;55472;50.060;21.960;2023-02-13T18:05:31;28.20;;;10.95;;
68484;SDS011;55472;50.060;21.960;2023-02-13T18:07:58;32.95;;;10.80;;
68484;SDS011;55472;50.060;21.960;2023-02-13T18:10:28;29.50;;;8.93;;
68484;SDS011;55472;50.060;21.960;2023-02-13T18:13:00;30.30;;;10.07;;
68484;SDS011;55472;50.060;21.960;2023-02-13T18:15:31;23.05;;;7.82;;
68484;SDS011;55472;50.060;21.960;2023-02-13T18:18:07;15.35;;;6.05;;
68484;SDS011;55472;50.060;21.960;2023-02-13T18:20:34;17.73;;;5.50;;
68484;SDS011;55472;50.060;21.960;2023-02-13T18:23:00;17.42;;;5.75;;
68484;SDS011;55472;50.060;21.960;2023-02-13T18:25:27;16.60;;;6.70;;
68484;SDS011;55472;50.060;21.960;2023-02-13T18:27:53;16.70;;;6.40;;
68484;SDS011;55472;50.060;21.960;2023-02-13T18:30:19;15.82;;;6.45;;
68484;SDS011;55472;50.060;21.960;2023-02-13T18:32:50;24.63;;;7.70;;
68484;SDS011;55472;50.060;21.960;2023-02-13T18:35:19;20.50;;;7.35;;
68484;SDS011;55472;50.060;21.960;2023-02-13T18:37:46;24.73;;;8.10;;
68484;SDS011;55472;50.060;21.960;2023-02-13T18:40:12;29.00;;;8.73;;